sensor_id;sensor_type;location;lat;lon;timestamp;P1;durP1;ratioP1;P2;durP2;ratioP2
68792;SDS011;55778;54.346;10.210;2022-07-04T00:00:15;12.13;;;6.80;;
68792;SDS011;55778;54.346;10.210;2022-07-04T00:02:42;11.15;;;6.65;;
68792;SDS011;55778;54.346;10.210;2022-07-04T00:05:08;12.43;;;5.85;;
68792;SDS011;55778;54.346;10.210;2022-07-04T00:07:42;14.18;;;6.88;;
68792;SDS011;55778;54.346;10.210;2022-07-04T00:10:10;13.52;;;6.28;;
68792;SDS011;55778;54.346;10.210;2022-07-04T00:15:05;10.73;;;5.30;;
68792;SDS011;55778;54.346;10.210;2022-07-04T00:17:32;13.13;;;6.18;;
68792;SDS011;55778;54.346;10.210;2022-07-04T00:19:57;11.65;;;6.22;;
68792;SDS011;55778;54.346;10.210;2022-07-04T00:22:23;13.27;;;6.30;;
68792;SDS011;55778;54.346;10.210;2022-07-04T00:24:48;16.42;;;6.22;;
68792;SDS011;55778;54.346;10.210;2022-07-04T00:27:14;15.27;;;6.38;;
68792;SDS011;55778;54.346;10.210;2022-07-04T00:29:39;17.00;;;6.68;;
68792;SDS011;55778;54.346;10.210;2022-07-04T00:32:05;13.68;;;5.75;;
68792;SDS011;55778;54.346;10.210;2022-07-04T00:34:30;13.02;;;6.85;;
68792;SDS011;55778;54.346;10.210;2022-07-04T00:36:56;13.35;;;7.03;;
68792;SDS011;55778;54.346;10.210;2022-07-04T00:39:21;15.57;;;6.97;;
68792;SDS011;55778;54.346;10.210;2022-07-04T00:41:47;12.88;;;6.20;;
68792;SDS011;55778;54.346;10.210;2022-07-04T00:44:13;12.63;;;6.32;;
68792;SDS011;55778;54.346;10.210;2022-07-04T00:46:41;10.48;;;5.95;;
68792;SDS011;55778;54.346;10.210;2022-07-04T00:49:07;11.77;;;6.30;;
68792;SDS011;55778;54.346;10.210;2022-07-04T00:51:33;11.77;;;6.28;;
68792;SDS011;55778;54.346;10.210;2022-07-04T00:53:59;8.90;;;5.72;;
68792;SDS011;55778;54.346;10.210;2022-07-04T00:56:25;12.57;;;6.45;;
68792;SDS011;55778;54.346;10.210;2022-07-04T00:58:51;11.27;;;6.15;;
68792;SDS011;55778;54.346;10.210;2022-07-04T01:01:18;10.73;;;6.30;;
68792;SDS011;55778;54.346;10.210;2022-07-04T01:03:45;11.93;;;6.72;;
68792;SDS011;55778;54.346;10.210;2022-07-04T01:06:11;13.23;;;6.50;;
68792;SDS011;55778;54.346;10.210;2022-07-04T01:08:40;16.70;;;6.35;;
68792;SDS011;55778;54.346;10.210;2022-07-04T01:11:07;13.77;;;6.40;;
68792;SDS011;55778;54.346;10.210;2022-07-04T01:13:33;16.95;;;6.93;;
68792;SDS011;55778;54.346;10.210;2022-07-04T01:15:59;11.23;;;6.72;;
68792;SDS011;55778;54.346;10.210;2022-07-04T01:18:24;11.05;;;6.13;;
68792;SDS011;55778;54.346;10.210;2022-07-04T01:20:50;11.88;;;6.35;;
68792;SDS011;55778;54.346;10.210;2022-07-04T01:23:15;11.48;;;5.90;;
68792;SDS011;55778;54.346;10.210;2022-07-04T01:25:41;13.02;;;5.72;;
68792;SDS011;55778;54.346;10.210;2022-07-04T01:28:07;12.65;;;6.03;;
68792;SDS011;55778;54.346;10.210;2022-07-04T01:30:32;11.02;;;5.50;;
68792;SDS011;55778;54.346;10.210;2022-07-04T01:32:58;10.88;;;6.40;;
68792;SDS011;55778;54.346;10.210;2022-07-04T01:35:24;11.38;;;5.97;;
68792;SDS011;55778;54.346;10.210;2022-07-04T01:37:49;13.20;;;5.93;;
68792;SDS011;55778;54.346;10.210;2022-07-04T01:40:16;13.02;;;6.25;;
68792;SDS011;55778;54.346;10.210;2022-07-04T01:42:41;11.50;;;5.95;;
68792;SDS011;55778;54.346;10.210;2022-07-04T01:45:08;14.18;;;5.72;;
68792;SDS011;55778;54.346;10.210;2022-07-04T01:47:35;14.82;;;6.10;;
68792;SDS011;55778;54.346;10.210;2022-07-04T01:50:02;11.73;;;6.38;;
68792;SDS011;55778;54.346;10.210;2022-07-04T01:52:29;12.38;;;6.05;;
68792;SDS011;55778;54.346;10.210;2022-07-04T01:54:54;12.50;;;6.38;;
68792;SDS011;55778;54.346;10.210;2022-07-04T01:57:20;13.20;;;6.47;;
68792;SDS011;55778;54.346;10.210;2022-07-04T01:59:46;11.80;;;6.00;;
68792;SDS011;55778;54.346;10.210;2022-07-04T02:02:29;11.23;;;5.63;;
68792;SDS011;55778;54.346;10.210;2022-07-04T02:04:55;11.35;;;5.85;;
68792;SDS011;55778;54.346;10.210;2022-07-04T02:07:20;10.57;;;5.15;;
68792;SDS011;55778;54.346;10.210;2022-07-04T02:09:46;9.73;;;5.15;;
68792;SDS011;55778;54.346;10.210;2022-07-04T02:12:11;10.18;;;5.10;;
68792;SDS011;55778;54.346;10.210;2022-07-04T02:14:56;9.70;;;4.95;;
68792;SDS011;55778;54.346;10.210;2022-07-04T02:17:21;9.95;;;5.28;;
68792;SDS011;55778;54.346;10.210;2022-07-04T02:19:47;9.43;;;4.90;;
68792;SDS011;55778;54.346;10.210;2022-07-04T02:22:13;11.98;;;5.10;;
68792;SDS011;55778;54.346;10.210;2022-07-04T02:24:38;7.63;;;4.72;;
68792;SDS011;55778;54.346;10.210;2022-07-04T02:27:04;7.20;;;4.85;;
68792;SDS011;55778;54.346;10.210;2022-07-04T02:29:30;9.63;;;5.00;;
68792;SDS011;55778;54.346;10.210;2022-07-04T02:31:56;9.95;;;4.90;;
68792;SDS011;55778;54.346;10.210;2022-07-04T02:34:21;8.60;;;4.90;;
68792;SDS011;55778;54.346;10.210;2022-07-04T02:36:47;13.77;;;4.90;;
68792;SDS011;55778;54.346;10.210;2022-07-04T02:39:12;11.98;;;4.88;;
68792;SDS011;55778;54.346;10.210;2022-07-04T02:41:38;10.30;;;4.68;;
68792;SDS011;55778;54.346;10.210;2022-07-04T02:44:03;11.20;;;4.85;;
68792;SDS011;55778;54.346;10.210;2022-07-04T02:46:29;6.90;;;4.28;;
68792;SDS011;55778;54.346;10.210;2022-07-04T02:48:57;8.63;;;4.72;;
68792;SDS011;55778;54.346;10.210;2022-07-04T02:51:22;9.63;;;4.85;;
68792;SDS011;55778;54.346;10.210;2022-07-04T02:53:48;13.80;;;5.57;;
68792;SDS011;55778;54.346;10.210;2022-07-04T02:56:13;9.70;;;4.93;;
68792;SDS011;55778;54.346;10.210;2022-07-04T02:58:39;11.10;;;5.50;;
68792;SDS011;55778;54.346;10.210;2022-07-04T03:01:04;11.73;;;4.97;;
68792;SDS011;55778;54.346;10.210;2022-07-04T03:03:30;11.65;;;5.40;;
68792;SDS011;55778;54.346;10.210;2022-07-04T03:05:55;13.95;;;5.05;;
68792;SDS011;55778;54.346;10.210;2022-07-04T03:08:20;12.02;;;5.13;;
68792;SDS011;55778;54.346;10.210;2022-07-04T03:10:46;11.93;;;5.10;;
68792;SDS011;55778;54.346;10.210;2022-07-04T03:13:14;10.30;;;5.53;;
68792;SDS011;55778;54.346;10.210;2022-07-04T03:15:39;10.02;;;5.63;;
68792;SDS011;55778;54.346;10.210;2022-07-04T03:18:04;7.60;;;4.65;;
68792;SDS011;55778;54.346;10.210;2022-07-04T03:20:30;9.43;;;5.22;;
68792;SDS011;55778;54.346;10.210;2022-07-04T03:22:55;10.60;;;5.18;;
68792;SDS011;55778;54.346;10.210;2022-07-04T03:25:21;9.35;;;5.43;;
68792;SDS011;55778;54.346;10.210;2022-07-04T03:27:46;14.65;;;6.35;;
68792;SDS011;55778;54.346;10.210;2022-07-04T03:30:12;16.15;;;6.90;;
68792;SDS011;55778;54.346;10.210;2022-07-04T03:32:38;13.25;;;6.10;;
68792;SDS011;55778;54.346;10.210;2022-07-04T03:35:03;12.30;;;5.70;;
68792;SDS011;55778;54.346;10.210;2022-07-04T03:37:30;10.25;;;5.05;;
68792;SDS011;55778;54.346;10.210;2022-07-04T03:39:55;12.70;;;5.75;;
68792;SDS011;55778;54.346;10.210;2022-07-04T03:42:20;10.30;;;5.53;;
68792;SDS011;55778;54.346;10.210;2022-07-04T03:44:46;11.02;;;5.38;;
68792;SDS011;55778;54.346;10.210;2022-07-04T03:47:11;11.65;;;5.43;;
68792;SDS011;55778;54.346;10.210;2022-07-04T03:49:37;12.55;;;5.22;;
68792;SDS011;55778;54.346;10.210;2022-07-04T03:52:02;10.30;;;5.20;;
68792;SDS011;55778;54.346;10.210;2022-07-04T03:54:28;11.05;;;5.20;;
68792;SDS011;55778;54.346;10.210;2022-07-04T03:56:54;10.77;;;5.40;;
68792;SDS011;55778;54.346;10.210;2022-07-04T03:59:20;8.20;;;4.70;;
68792;SDS011;55778;54.346;10.210;2022-07-04T04:01:45;9.80;;;4.82;;
68792;SDS011;55778;54.346;10.210;2022-07-04T04:04:11;10.23;;;4.85;;
68792;SDS011;55778;54.346;10.210;2022-07-04T04:06:54;11.85;;;4.93;;
68792;SDS011;55778;54.346;10.210;2022-07-04T04:09:20;8.40;;;4.68;;
68792;SDS011;55778;54.346;10.210;2022-07-04T04:11:46;8.98;;;4.32;;
68792;SDS011;55778;54.346;10.210;2022-07-04T04:14:12;9.95;;;4.15;;
68792;SDS011;55778;54.346;10.210;2022-07-04T04:16:37;8.02;;;4.40;;
68792;SDS011;55778;54.346;10.210;2022-07-04T04:19:03;12.43;;;4.68;;
68792;SDS011;55778;54.346;10.210;2022-07-04T04:21:29;7.72;;;4.20;;
68792;SDS011;55778;54.346;10.210;2022-07-04T04:23:54;8.73;;;4.13;;
68792;SDS011;55778;54.346;10.210;2022-07-04T04:26:20;7.40;;;4.30;;
68792;SDS011;55778;54.346;10.210;2022-07-04T04:28:45;7.85;;;4.40;;
68792;SDS011;55778;54.346;10.210;2022-07-04T04:31:11;10.02;;;3.72;;
68792;SDS011;55778;54.346;10.210;2022-07-04T04:33:36;8.52;;;4.10;;
68792;SDS011;55778;54.346;10.210;2022-07-04T04:36:02;8.77;;;4.28;;
68792;SDS011;55778;54.346;10.210;2022-07-04T04:38:27;8.82;;;3.88;;
68792;SDS011;55778;54.346;10.210;2022-07-04T04:40:53;9.50;;;3.83;;
68792;SDS011;55778;54.346;10.210;2022-07-04T04:43:18;6.95;;;3.63;;
68792;SDS011;55778;54.346;10.210;2022-07-04T04:45:43;8.48;;;3.50;;
68792;SDS011;55778;54.346;10.210;2022-07-04T04:48:09;7.18;;;3.30;;
68792;SDS011;55778;54.346;10.210;2022-07-04T04:50:34;6.95;;;3.50;;
68792;SDS011;55778;54.346;10.210;2022-07-04T04:53:00;7.25;;;3.40;;
68792;SDS011;55778;54.346;10.210;2022-07-04T04:55:26;4.93;;;3.13;;
68792;SDS011;55778;54.346;10.210;2022-07-04T04:57:52;6.93;;;3.22;;
68792;SDS011;55778;54.346;10.210;2022-07-04T05:00:18;7.85;;;3.97;;
68792;SDS011;55778;54.346;10.210;2022-07-04T05:02:43;6.50;;;3.13;;
68792;SDS011;55778;54.346;10.210;2022-07-04T05:05:09;6.50;;;2.88;;
68792;SDS011;55778;54.346;10.210;2022-07-04T05:07:36;4.80;;;2.65;;
68792;SDS011;55778;54.346;10.210;2022-07-04T05:10:01;5.45;;;2.60;;
68792;SDS011;55778;54.346;10.210;2022-07-04T05:12:28;4.47;;;2.60;;
68792;SDS011;55778;54.346;10.210;2022-07-04T05:14:54;6.07;;;2.90;;
68792;SDS011;55778;54.346;10.210;2022-07-04T05:17:19;5.63;;;2.35;;
68792;SDS011;55778;54.346;10.210;2022-07-04T05:19:45;6.60;;;2.50;;
68792;SDS011;55778;54.346;10.210;2022-07-04T05:22:10;5.43;;;2.42;;
68792;SDS011;55778;54.346;10.210;2022-07-04T05:24:36;5.78;;;2.25;;
68792;SDS011;55778;54.346;10.210;2022-07-04T05:27:05;4.17;;;2.40;;
68792;SDS011;55778;54.346;10.210;2022-07-04T05:29:33;3.00;;;2.03;;
68792;SDS011;55778;54.346;10.210;2022-07-04T05:31:59;4.25;;;1.70;;
68792;SDS011;55778;54.346;10.210;2022-07-04T05:34:24;6.10;;;2.33;;
68792;SDS011;55778;54.346;10.210;2022-07-04T05:36:50;4.40;;;2.05;;
68792;SDS011;55778;54.346;10.210;2022-07-04T05:39:16;3.80;;;1.70;;
68792;SDS011;55778;54.346;10.210;2022-07-04T05:41:41;3.90;;;1.88;;
68792;SDS011;55778;54.346;10.210;2022-07-04T05:44:07;6.82;;;1.90;;
68792;SDS011;55778;54.346;10.210;2022-07-04T05:46:32;6.45;;;1.95;;
68792;SDS011;55778;54.346;10.210;2022-07-04T05:48:58;9.38;;;2.30;;
68792;SDS011;55778;54.346;10.210;2022-07-04T05:51:23;6.70;;;1.95;;
68792;SDS011;55778;54.346;10.210;2022-07-04T05:53:49;3.10;;;1.88;;
68792;SDS011;55778;54.346;10.210;2022-07-04T05:56:14;5.65;;;2.10;;
68792;SDS011;55778;54.346;10.210;2022-07-04T05:58:39;3.63;;;1.80;;
68792;SDS011;55778;54.346;10.210;2022-07-04T06:01:05;5.68;;;1.75;;
68792;SDS011;55778;54.346;10.210;2022-07-04T06:03:31;4.97;;;2.05;;
68792;SDS011;55778;54.346;10.210;2022-07-04T06:05:57;6.00;;;1.92;;
68792;SDS011;55778;54.346;10.210;2022-07-04T06:08:22;3.60;;;1.50;;
68792;SDS011;55778;54.346;10.210;2022-07-04T06:10:48;6.68;;;1.50;;
68792;SDS011;55778;54.346;10.210;2022-07-04T06:13:14;6.03;;;1.63;;
68792;SDS011;55778;54.346;10.210;2022-07-04T06:15:39;2.92;;;1.50;;
68792;SDS011;55778;54.346;10.210;2022-07-04T06:18:05;4.03;;;1.40;;
68792;SDS011;55778;54.346;10.210;2022-07-04T06:20:30;5.18;;;1.30;;
68792;SDS011;55778;54.346;10.210;2022-07-04T06:22:56;2.70;;;1.40;;
68792;SDS011;55778;54.346;10.210;2022-07-04T06:25:21;3.53;;;1.40;;
68792;SDS011;55778;54.346;10.210;2022-07-04T06:27:48;4.53;;;1.50;;
68792;SDS011;55778;54.346;10.210;2022-07-04T06:30:15;4.93;;;1.50;;
68792;SDS011;55778;54.346;10.210;2022-07-04T06:32:45;9.27;;;1.35;;
68792;SDS011;55778;54.346;10.210;2022-07-04T06:35:30;2.42;;;1.10;;
68792;SDS011;55778;54.346;10.210;2022-07-04T06:38:19;4.68;;;1.40;;
68792;SDS011;55778;54.346;10.210;2022-07-04T06:40:55;2.78;;;1.30;;
68792;SDS011;55778;54.346;10.210;2022-07-04T06:43:22;3.58;;;1.20;;
68792;SDS011;55778;54.346;10.210;2022-07-04T06:45:48;4.28;;;1.73;;
68792;SDS011;55778;54.346;10.210;2022-07-04T06:48:14;2.40;;;1.10;;
68792;SDS011;55778;54.346;10.210;2022-07-04T06:50:39;5.95;;;1.40;;
68792;SDS011;55778;54.346;10.210;2022-07-04T06:53:05;4.32;;;1.40;;
68792;SDS011;55778;54.346;10.210;2022-07-04T06:55:32;4.65;;;1.20;;
68792;SDS011;55778;54.346;10.210;2022-07-04T06:57:58;2.67;;;1.10;;
68792;SDS011;55778;54.346;10.210;2022-07-04T07:00:23;5.63;;;1.10;;
68792;SDS011;55778;54.346;10.210;2022-07-04T07:02:49;4.65;;;1.20;;
68792;SDS011;55778;54.346;10.210;2022-07-04T07:05:14;2.50;;;1.00;;
68792;SDS011;55778;54.346;10.210;2022-07-04T07:07:40;2.72;;;1.00;;
68792;SDS011;55778;54.346;10.210;2022-07-04T07:10:05;2.80;;;0.77;;
68792;SDS011;55778;54.346;10.210;2022-07-04T07:12:32;3.63;;;1.23;;
68792;SDS011;55778;54.346;10.210;2022-07-04T07:14:58;3.35;;;1.02;;
68792;SDS011;55778;54.346;10.210;2022-07-04T07:17:24;3.78;;;0.98;;
68792;SDS011;55778;54.346;10.210;2022-07-04T07:19:50;3.20;;;1.13;;
68792;SDS011;55778;54.346;10.210;2022-07-04T07:22:15;2.17;;;1.00;;
68792;SDS011;55778;54.346;10.210;2022-07-04T07:24:41;3.30;;;1.10;;
68792;SDS011;55778;54.346;10.210;2022-07-04T07:27:07;3.70;;;1.52;;
68792;SDS011;55778;54.346;10.210;2022-07-04T07:29:34;3.58;;;1.13;;
68792;SDS011;55778;54.346;10.210;2022-07-04T07:32:00;3.95;;;1.20;;
68792;SDS011;55778;54.346;10.210;2022-07-04T07:34:26;5.93;;;1.30;;
68792;SDS011;55778;54.346;10.210;2022-07-04T07:36:52;4.22;;;1.10;;
68792;SDS011;55778;54.346;10.210;2022-07-04T07:39:17;6.50;;;1.40;;
68792;SDS011;55778;54.346;10.210;2022-07-04T07:41:43;4.20;;;1.30;;
68792;SDS011;55778;54.346;10.210;2022-07-04T07:44:08;4.07;;;1.17;;
68792;SDS011;55778;54.346;10.210;2022-07-04T07:46:33;3.92;;;1.30;;
68792;SDS011;55778;54.346;10.210;2022-07-04T07:48:59;2.85;;;1.25;;
68792;SDS011;55778;54.346;10.210;2022-07-04T07:51:24;8.90;;;2.28;;
68792;SDS011;55778;54.346;10.210;2022-07-04T07:53:50;4.45;;;1.60;;
68792;SDS011;55778;54.346;10.210;2022-07-04T07:56:15;2.05;;;1.30;;
68792;SDS011;55778;54.346;10.210;2022-07-04T07:58:41;1.27;;;0.98;;
68792;SDS011;55778;54.346;10.210;2022-07-04T08:01:06;6.38;;;1.20;;
68792;SDS011;55778;54.346;10.210;2022-07-04T08:03:32;4.28;;;1.20;;
68792;SDS011;55778;54.346;10.210;2022-07-04T08:06:16;3.88;;;1.83;;
68792;SDS011;55778;54.346;10.210;2022-07-04T08:08:41;2.55;;;1.23;;
68792;SDS011;55778;54.346;10.210;2022-07-04T08:11:08;2.88;;;1.20;;
68792;SDS011;55778;54.346;10.210;2022-07-04T08:13:35;4.50;;;1.50;;
68792;SDS011;55778;54.346;10.210;2022-07-04T08:16:01;5.38;;;1.30;;
68792;SDS011;55778;54.346;10.210;2022-07-04T08:18:26;3.15;;;1.08;;
68792;SDS011;55778;54.346;10.210;2022-07-04T08:20:52;1.92;;;1.13;;
68792;SDS011;55778;54.346;10.210;2022-07-04T08:23:17;3.50;;;1.15;;
68792;SDS011;55778;54.346;10.210;2022-07-04T08:25:43;1.73;;;1.10;;
68792;SDS011;55778;54.346;10.210;2022-07-04T08:28:09;1.92;;;0.90;;
68792;SDS011;55778;54.346;10.210;2022-07-04T08:30:34;2.55;;;0.90;;
68792;SDS011;55778;54.346;10.210;2022-07-04T08:33:00;2.92;;;1.00;;
68792;SDS011;55778;54.346;10.210;2022-07-04T08:35:26;2.72;;;1.13;;
68792;SDS011;55778;54.346;10.210;2022-07-04T08:37:51;1.73;;;0.90;;
68792;SDS011;55778;54.346;10.210;2022-07-04T08:40:24;1.55;;;0.88;;
68792;SDS011;55778;54.346;10.210;2022-07-04T08:42:50;3.08;;;0.90;;
68792;SDS011;55778;54.346;10.210;2022-07-04T08:45:16;2.85;;;0.95;;
68792;SDS011;55778;54.346;10.210;2022-07-04T08:47:45;2.25;;;0.90;;
68792;SDS011;55778;54.346;10.210;2022-07-04T08:50:19;2.67;;;1.00;;
68792;SDS011;55778;54.346;10.210;2022-07-04T08:52:54;2.75;;;0.80;;
68792;SDS011;55778;54.346;10.210;2022-07-04T08:55:23;2.80;;;0.90;;
68792;SDS011;55778;54.346;10.210;2022-07-04T08:58:08;1.67;;;0.73;;
68792;SDS011;55778;54.346;10.210;2022-07-04T09:00:53;2.20;;;1.02;;
68792;SDS011;55778;54.346;10.210;2022-07-04T09:03:19;3.15;;;0.82;;
68792;SDS011;55778;54.346;10.210;2022-07-04T09:05:46;2.17;;;0.85;;
68792;SDS011;55778;54.346;10.210;2022-07-04T09:08:12;2.08;;;1.00;;
68792;SDS011;55778;54.346;10.210;2022-07-04T09:10:38;2.22;;;1.00;;
68792;SDS011;55778;54.346;10.210;2022-07-04T09:13:06;4.43;;;0.98;;
68792;SDS011;55778;54.346;10.210;2022-07-04T09:15:33;1.25;;;0.80;;
68792;SDS011;55778;54.346;10.210;2022-07-04T09:17:59;2.22;;;0.75;;
68792;SDS011;55778;54.346;10.210;2022-07-04T09:20:25;2.13;;;0.73;;
68792;SDS011;55778;54.346;10.210;2022-07-04T09:22:53;2.22;;;1.02;;
68792;SDS011;55778;54.346;10.210;2022-07-04T09:25:19;4.18;;;1.00;;
68792;SDS011;55778;54.346;10.210;2022-07-04T09:27:50;1.42;;;0.70;;
68792;SDS011;55778;54.346;10.210;2022-07-04T09:30:18;1.90;;;0.82;;
68792;SDS011;55778;54.346;10.210;2022-07-04T09:32:46;1.73;;;0.85;;
68792;SDS011;55778;54.346;10.210;2022-07-04T09:35:16;2.38;;;0.70;;
68792;SDS011;55778;54.346;10.210;2022-07-04T09:37:44;2.35;;;1.10;;
68792;SDS011;55778;54.346;10.210;2022-07-04T09:40:20;1.75;;;0.73;;
68792;SDS011;55778;54.346;10.210;2022-07-04T09:42:46;2.33;;;0.90;;
68792;SDS011;55778;54.346;10.210;2022-07-04T09:45:11;0.88;;;0.80;;
68792;SDS011;55778;54.346;10.210;2022-07-04T09:47:40;3.03;;;0.80;;
68792;SDS011;55778;54.346;10.210;2022-07-04T09:55:30;3.25;;;0.80;;
68792;SDS011;55778;54.346;10.210;2022-07-04T09:57:58;1.80;;;0.80;;
68792;SDS011;55778;54.346;10.210;2022-07-04T10:00:31;1.50;;;0.70;;
68792;SDS011;55778;54.346;10.210;2022-07-04T10:06:03;2.78;;;1.02;;
68792;SDS011;55778;54.346;10.210;2022-07-04T10:10:59;2.15;;;0.80;;
68792;SDS011;55778;54.346;10.210;2022-07-04T10:13:25;1.95;;;0.98;;
68792;SDS011;55778;54.346;10.210;2022-07-04T10:15:51;0.90;;;0.70;;
68792;SDS011;55778;54.346;10.210;2022-07-04T10:18:20;1.95;;;0.90;;
68792;SDS011;55778;54.346;10.210;2022-07-04T10:20:48;1.88;;;0.80;;
68792;SDS011;55778;54.346;10.210;2022-07-04T10:23:15;2.22;;;0.80;;
68792;SDS011;55778;54.346;10.210;2022-07-04T10:25:42;2.40;;;0.80;;
68792;SDS011;55778;54.346;10.210;2022-07-04T10:28:08;2.65;;;0.82;;
68792;SDS011;55778;54.346;10.210;2022-07-04T10:30:37;2.58;;;0.80;;
68792;SDS011;55778;54.346;10.210;2022-07-04T10:33:05;1.73;;;1.00;;
68792;SDS011;55778;54.346;10.210;2022-07-04T10:41:14;1.63;;;1.23;;
68792;SDS011;55778;54.346;10.210;2022-07-04T10:43:51;2.53;;;0.90;;
68792;SDS011;55778;54.346;10.210;2022-07-04T10:46:23;1.48;;;0.75;;
68792;SDS011;55778;54.346;10.210;2022-07-04T10:48:49;3.58;;;0.80;;
68792;SDS011;55778;54.346;10.210;2022-07-04T10:54:05;2.45;;;1.00;;
68792;SDS011;55778;54.346;10.210;2022-07-04T10:59:27;3.35;;;0.90;;
68792;SDS011;55778;54.346;10.210;2022-07-04T11:07:09;1.95;;;0.75;;
68792;SDS011;55778;54.346;10.210;2022-07-04T11:09:34;2.05;;;0.80;;
68792;SDS011;55778;54.346;10.210;2022-07-04T11:12:01;2.83;;;0.85;;
68792;SDS011;55778;54.346;10.210;2022-07-04T11:17:06;1.33;;;0.75;;
68792;SDS011;55778;54.346;10.210;2022-07-04T11:19:36;1.77;;;0.80;;
68792;SDS011;55778;54.346;10.210;2022-07-04T11:22:02;2.35;;;1.00;;
68792;SDS011;55778;54.346;10.210;2022-07-04T11:24:30;2.28;;;1.00;;
68792;SDS011;55778;54.346;10.210;2022-07-04T11:26:56;2.00;;;0.90;;
68792;SDS011;55778;54.346;10.210;2022-07-04T11:29:23;3.42;;;1.00;;
68792;SDS011;55778;54.346;10.210;2022-07-04T11:31:49;2.25;;;0.90;;
68792;SDS011;55778;54.346;10.210;2022-07-04T11:34:16;3.65;;;0.80;;
68792;SDS011;55778;54.346;10.210;2022-07-04T11:36:42;1.27;;;0.93;;
68792;SDS011;55778;54.346;10.210;2022-07-04T11:39:10;1.40;;;0.75;;
68792;SDS011;55778;54.346;10.210;2022-07-04T11:41:39;2.47;;;0.98;;
68792;SDS011;55778;54.346;10.210;2022-07-04T11:44:28;2.75;;;0.70;;
68792;SDS011;55778;54.346;10.210;2022-07-04T11:47:17;1.80;;;0.70;;
68792;SDS011;55778;54.346;10.210;2022-07-04T11:52:22;3.60;;;1.00;;
68792;SDS011;55778;54.346;10.210;2022-07-04T11:54:50;3.17;;;0.65;;
68792;SDS011;55778;54.346;10.210;2022-07-04T11:57:24;2.47;;;0.90;;
68792;SDS011;55778;54.346;10.210;2022-07-04T12:00:12;2.95;;;1.10;;
68792;SDS011;55778;54.346;10.210;2022-07-04T12:02:38;2.00;;;0.82;;
68792;SDS011;55778;54.346;10.210;2022-07-04T12:05:08;2.75;;;1.00;;
68792;SDS011;55778;54.346;10.210;2022-07-04T12:07:35;2.13;;;0.80;;
68792;SDS011;55778;54.346;10.210;2022-07-04T12:10:12;1.73;;;0.80;;
68792;SDS011;55778;54.346;10.210;2022-07-04T12:15:25;3.20;;;1.02;;
68792;SDS011;55778;54.346;10.210;2022-07-04T12:18:00;1.60;;;0.80;;
68792;SDS011;55778;54.346;10.210;2022-07-04T12:20:25;2.70;;;0.80;;
68792;SDS011;55778;54.346;10.210;2022-07-04T12:22:55;5.07;;;1.05;;
68792;SDS011;55778;54.346;10.210;2022-07-04T12:25:32;2.80;;;0.93;;
68792;SDS011;55778;54.346;10.210;2022-07-04T12:28:12;2.70;;;1.00;;
68792;SDS011;55778;54.346;10.210;2022-07-04T12:30:49;1.48;;;0.93;;
68792;SDS011;55778;54.346;10.210;2022-07-04T12:33:17;3.17;;;1.00;;
68792;SDS011;55778;54.346;10.210;2022-07-04T12:41:02;3.63;;;1.10;;
68792;SDS011;55778;54.346;10.210;2022-07-04T12:48:33;1.63;;;0.80;;
68792;SDS011;55778;54.346;10.210;2022-07-04T12:51:16;1.25;;;0.70;;
68792;SDS011;55778;54.346;10.210;2022-07-04T12:53:45;1.17;;;0.70;;
68792;SDS011;55778;54.346;10.210;2022-07-04T12:59:19;1.20;;;0.70;;
68792;SDS011;55778;54.346;10.210;2022-07-04T13:01:45;1.27;;;0.70;;
68792;SDS011;55778;54.346;10.210;2022-07-04T13:04:11;3.55;;;0.82;;
68792;SDS011;55778;54.346;10.210;2022-07-04T13:06:37;1.73;;;0.90;;
68792;SDS011;55778;54.346;10.210;2022-07-04T13:09:03;1.90;;;0.90;;
68792;SDS011;55778;54.346;10.210;2022-07-04T13:11:32;1.40;;;0.88;;
68792;SDS011;55778;54.346;10.210;2022-07-04T13:14:17;2.33;;;0.90;;
68792;SDS011;55778;54.346;10.210;2022-07-04T13:16:42;1.65;;;0.80;;
68792;SDS011;55778;54.346;10.210;2022-07-04T13:19:08;1.60;;;0.90;;
68792;SDS011;55778;54.346;10.210;2022-07-04T13:21:33;2.58;;;0.88;;
68792;SDS011;55778;54.346;10.210;2022-07-04T13:23:58;2.53;;;0.90;;
68792;SDS011;55778;54.346;10.210;2022-07-04T13:26:24;1.65;;;0.85;;
68792;SDS011;55778;54.346;10.210;2022-07-04T13:28:50;1.45;;;0.80;;
68792;SDS011;55778;54.346;10.210;2022-07-04T13:31:15;3.97;;;1.23;;
68792;SDS011;55778;54.346;10.210;2022-07-04T13:33:41;1.27;;;0.80;;
68792;SDS011;55778;54.346;10.210;2022-07-04T13:36:06;4.75;;;1.20;;
68792;SDS011;55778;54.346;10.210;2022-07-04T13:38:32;2.58;;;1.00;;
68792;SDS011;55778;54.346;10.210;2022-07-04T13:40:57;2.47;;;0.85;;
68792;SDS011;55778;54.346;10.210;2022-07-04T13:43:23;2.05;;;0.98;;
68792;SDS011;55778;54.346;10.210;2022-07-04T13:45:49;1.38;;;0.90;;
68792;SDS011;55778;54.346;10.210;2022-07-04T13:48:15;1.10;;;1.00;;
68792;SDS011;55778;54.346;10.210;2022-07-04T13:50:41;4.22;;;0.90;;
68792;SDS011;55778;54.346;10.210;2022-07-04T13:53:06;2.03;;;1.02;;
68792;SDS011;55778;54.346;10.210;2022-07-04T13:55:34;1.67;;;1.02;;
68792;SDS011;55778;54.346;10.210;2022-07-04T13:58:03;3.08;;;1.00;;
68792;SDS011;55778;54.346;10.210;2022-07-04T14:00:30;2.55;;;1.10;;
68792;SDS011;55778;54.346;10.210;2022-07-04T14:02:55;4.10;;;1.38;;
68792;SDS011;55778;54.346;10.210;2022-07-04T14:05:21;1.48;;;0.70;;
68792;SDS011;55778;54.346;10.210;2022-07-04T14:07:46;4.00;;;0.82;;
68792;SDS011;55778;54.346;10.210;2022-07-04T14:10:12;4.00;;;0.88;;
68792;SDS011;55778;54.346;10.210;2022-07-04T14:12:38;1.48;;;0.80;;
68792;SDS011;55778;54.346;10.210;2022-07-04T14:15:04;1.05;;;0.60;;
68792;SDS011;55778;54.346;10.210;2022-07-04T14:17:30;0.88;;;0.65;;
68792;SDS011;55778;54.346;10.210;2022-07-04T14:19:56;2.47;;;0.82;;
68792;SDS011;55778;54.346;10.210;2022-07-04T14:22:21;3.10;;;0.75;;
68792;SDS011;55778;54.346;10.210;2022-07-04T14:24:47;3.10;;;0.77;;
68792;SDS011;55778;54.346;10.210;2022-07-04T14:27:12;1.95;;;0.70;;
68792;SDS011;55778;54.346;10.210;2022-07-04T14:29:38;1.77;;;0.70;;
68792;SDS011;55778;54.346;10.210;2022-07-04T14:32:03;1.02;;;0.60;;
68792;SDS011;55778;54.346;10.210;2022-07-04T14:34:32;2.73;;;0.90;;
68792;SDS011;55778;54.346;10.210;2022-07-04T14:36:57;2.13;;;0.80;;
68792;SDS011;55778;54.346;10.210;2022-07-04T14:39:22;3.03;;;0.82;;
68792;SDS011;55778;54.346;10.210;2022-07-04T14:41:48;1.83;;;0.90;;
68792;SDS011;55778;54.346;10.210;2022-07-04T14:44:15;3.20;;;0.77;;
68792;SDS011;55778;54.346;10.210;2022-07-04T14:46:41;2.72;;;0.90;;
68792;SDS011;55778;54.346;10.210;2022-07-04T14:49:07;1.77;;;0.80;;
68792;SDS011;55778;54.346;10.210;2022-07-04T14:51:32;2.42;;;1.00;;
68792;SDS011;55778;54.346;10.210;2022-07-04T14:53:58;1.50;;;0.90;;
68792;SDS011;55778;54.346;10.210;2022-07-04T14:56:23;1.98;;;0.98;;
68792;SDS011;55778;54.346;10.210;2022-07-04T14:58:48;2.00;;;1.00;;
68792;SDS011;55778;54.346;10.210;2022-07-04T15:01:14;2.45;;;0.95;;
68792;SDS011;55778;54.346;10.210;2022-07-04T15:03:39;2.15;;;0.90;;
68792;SDS011;55778;54.346;10.210;2022-07-04T15:06:05;2.60;;;0.90;;
68792;SDS011;55778;54.346;10.210;2022-07-04T15:08:30;1.23;;;0.90;;
68792;SDS011;55778;54.346;10.210;2022-07-04T15:10:56;1.60;;;0.80;;
68792;SDS011;55778;54.346;10.210;2022-07-04T15:13:21;3.40;;;1.85;;
68792;SDS011;55778;54.346;10.210;2022-07-04T15:15:46;2.25;;;0.90;;
68792;SDS011;55778;54.346;10.210;2022-07-04T15:18:12;2.08;;;0.80;;
68792;SDS011;55778;54.346;10.210;2022-07-04T15:20:37;3.78;;;0.88;;